Time;durP1;ratioP1;P1;durP2;ratioP2;P2;SDS_P1;SDS_P2;PMS_P1;PMS_P2;Temp;Humidity;BMP_temperature;BMP_pressure;BME280_temperature;BME280_humidity;BME280_pressure;Samples;Min_cycle;Max_cycle;Signal;HPM_P1;HPM_P2
2023/05/06 00:01:24;;;;;;;12.05;5.05;;;8.40;95.70;;;;;;4999270;28;20113;-73
2023/05/06 00:03:50;;;;;;;12.52;5.00;;;8.40;95.70;;;;;;4995660;28;20081;-72
2023/05/06 00:06:16;;;;;;;10.27;4.15;;;8.40;95.70;;;;;;4993719;28;20026;-72
2023/05/06 00:08:41;;;;;;;10.73;4.63;;;8.30;95.70;;;;;;4995422;28;20035;-72
2023/05/06 00:11:07;;;;;;;9.18;4.68;;;8.30;95.70;;;;;;4992061;28;20022;-73
2023/05/06 00:13:32;;;;;;;11.15;5.30;;;8.30;95.90;;;;;;4996426;28;20379;-72
2023/05/06 00:15:58;;;;;;;10.77;4.45;;;8.40;95.80;;;;;;4996621;28;20038;-72
2023/05/06 00:18:23;;;;;;;11.93;4.70;;;8.40;95.80;;;;;;4991735;28;20044;-73
2023/05/06 00:20:49;;;;;;;13.77;4.57;;;8.40;95.90;;;;;;4994402;28;20031;-73
2023/05/06 00:23:15;;;;;;;10.95;5.07;;;8.40;96.00;;;;;;4996119;28;20026;-73
2023/05/06 00:25:41;;;;;;;10.45;4.72;;;8.30;95.70;;;;;;4992134;28;20031;-72
2023/05/06 00:28:06;;;;;;;11.65;4.88;;;8.20;95.70;;;;;;4991132;28;20291;-72
2023/05/06 00:30:32;;;;;;;9.15;4.90;;;8.30;95.80;;;;;;4988627;28;20513;-72
2023/05/06 00:32:57;;;;;;;10.10;4.07;;;8.30;95.80;;;;;;4991168;28;20161;-72
2023/05/06 00:35:23;;;;;;;14.00;4.93;;;8.30;95.70;;;;;;4990849;28;20121;-72
2023/05/06 00:38:09;;;;;;;11.93;5.22;;;8.30;95.70;;;;;;4993765;28;20027;-72
2023/05/06 00:40:35;;;;;;;9.57;4.85;;;8.30;96.00;;;;;;4987092;28;20043;-72
2023/05/06 00:43:01;;;;;;;10.90;5.07;;;8.20;95.90;;;;;;4988434;28;20034;-72
2023/05/06 00:45:26;;;;;;;12.88;5.18;;;8.20;95.90;;;;;;4974125;28;20156;-72
2023/05/06 00:47:52;;;;;;;9.77;4.38;;;8.20;96.00;;;;;;4990859;28;20038;-72
2023/05/06 00:50:18;;;;;;;14.43;5.13;;;8.20;96.10;;;;;;4992458;28;20082;-73
2023/05/06 00:52:44;;;;;;;10.88;5.32;;;8.20;96.20;;;;;;4992601;28;20034;-72
2023/05/06 00:55:10;;;;;;;13.13;4.97;;;8.20;96.30;;;;;;4991995;28;20106;-72
2023/05/06 00:57:36;;;;;;;15.65;5.47;;;8.10;96.30;;;;;;4992789;28;20165;-72
2023/05/06 01:00:05;;;;;;;14.02;5.30;;;8.20;96.60;;;;;;4991893;28;20455;-72
2023/05/06 01:02:31;;;;;;;10.85;5.28;;;8.10;96.50;;;;;;4990177;28;20037;-72
2023/05/06 01:04:57;;;;;;;12.52;5.93;;;8.10;96.70;;;;;;4986022;28;20034;-72
2023/05/06 01:07:39;;;;;;;15.25;5.32;;;8.30;96.80;;;;;;4993352;28;20081;-72
2023/05/06 01:10:19;;;;;;;14.18;5.85;;;8.30;96.80;;;;;;4990621;28;20141;-72
2023/05/06 01:12:56;;;;;;;11.15;5.57;;;8.20;96.80;;;;;;4992090;28;20030;-72
2023/05/06 01:15:32;;;;;;;15.75;5.82;;;8.20;96.90;;;;;;4988606;28;20027;-72
2023/05/06 01:18:00;;;;;;;12.30;6.10;;;8.20;96.90;;;;;;4990925;28;21311;-72
2023/05/06 01:20:29;;;;;;;13.90;6.05;;;8.20;97.20;;;;;;4996141;28;20018;-72
2023/05/06 01:22:55;;;;;;;12.55;5.75;;;8.10;97.10;;;;;;4994939;28;20097;-72
2023/05/06 01:25:21;;;;;;;14.07;6.03;;;8.10;97.30;;;;;;4989548;28;20101;-72
2023/05/06 01:27:48;;;;;;;13.02;5.90;;;8.20;97.60;;;;;;4989075;28;20018;-72
2023/05/06 01:30:18;;;;;;;15.63;6.05;;;8.20;97.70;;;;;;4987194;28;20065;-72
2023/05/06 01:32:59;;;;;;;16.02;6.05;;;8.20;97.60;;;;;;4989385;28;20025;-72
2023/05/06 01:35:43;;;;;;;;;;;8.10;97.70;;;;;;4989253;28;20050;-72
2023/05/06 01:38:23;;;;;;;12.00;5.55;;;8.10;97.80;;;;;;4984335;28;19916;-72
2023/05/06 01:40:54;;;;;;;15.85;6.00;;;8.10;97.80;;;;;;4996021;28;20041;-72
2023/05/06 01:43:20;;;;;;;16.77;6.90;;;8.10;97.80;;;;;;4989225;28;20031;-72
2023/05/06 01:45:51;;;;;;;14.57;6.63;;;8.20;98.00;;;;;;4989123;28;20101;-72
2023/05/06 01:48:22;;;;;;;;;;;8.20;98.10;;;;;;4988741;28;20073;-72
2023/05/06 01:50:47;;;;;;;19.17;6.45;;;8.30;98.10;;;;;;4988117;28;20331;-72
2023/05/06 01:53:13;;;;;;;15.35;6.43;;;8.20;98.10;;;;;;4991863;28;20054;-72
2023/05/06 01:55:38;;;;;;;17.63;6.85;;;8.20;98.00;;;;;;4989540;28;20136;-72
2023/05/06 01:58:04;;;;;;;17.15;7.13;;;8.10;97.90;;;;;;4992493;28;20034;-72
2023/05/06 02:00:29;;;;;;;15.10;7.22;;;8.20;98.00;;;;;;4990562;28;20035;-72
2023/05/06 02:02:55;;;;;;;14.50;6.68;;;8.10;97.90;;;;;;4989800;28;20029;-72
2023/05/06 02:05:20;;;;;;;15.23;7.10;;;8.20;98.10;;;;;;4989518;28;20033;-72
2023/05/06 02:07:46;;;;;;;17.00;7.75;;;8.20;98.10;;;;;;4990043;28;20113;-72
2023/05/06 02:10:11;;;;;;;14.68;6.90;;;8.20;98.10;;;;;;4988050;28;20038;-72
2023/05/06 02:12:37;;;;;;;13.80;7.05;;;8.30;98.20;;;;;;4990503;28;20410;-72
2023/05/06 02:15:03;;;;;;;16.02;7.03;;;8.20;98.00;;;;;;4972282;28;20034;-72
2023/05/06 02:17:28;;;;;;;15.85;6.95;;;8.20;98.20;;;;;;4989974;28;20026;-72
2023/05/06 02:19:54;;;;;;;16.20;7.45;;;8.20;98.10;;;;;;4992025;28;20053;-72
2023/05/06 02:22:19;;;;;;;18.17;7.47;;;8.20;98.20;;;;;;4993838;28;20034;-72
2023/05/06 02:24:44;;;;;;;15.60;6.45;;;8.20;98.10;;;;;;5001655;28;20073;-72
2023/05/06 02:27:10;;;;;;;17.42;6.95;;;8.20;98.30;;;;;;4986738;28;20463;-72
2023/05/06 02:29:35;;;;;;;15.85;7.57;;;8.30;98.30;;;;;;4988230;28;20050;-72
2023/05/06 02:32:01;;;;;;;13.70;6.65;;;8.20;98.30;;;;;;4991658;28;20062;-73
2023/05/06 02:34:26;;;;;;;16.23;7.13;;;8.30;98.30;;;;;;4990453;28;20107;-72
2023/05/06 02:36:52;;;;;;;16.40;7.38;;;8.30;98.50;;;;;;4995835;28;20042;-73
2023/05/06 02:39:17;;;;;;;12.65;7.28;;;8.30;98.40;;;;;;4988196;28;20022;-73
2023/05/06 02:41:43;;;;;;;14.23;7.72;;;8.30;98.50;;;;;;4987329;28;20080;-73
2023/05/06 02:44:08;;;;;;;15.60;7.63;;;8.40;98.50;;;;;;4990490;28;20030;-72
2023/05/06 02:46:34;;;;;;;18.85;8.10;;;8.30;98.50;;;;;;4971021;28;20022;-72
2023/05/06 02:49:00;;;;;;;18.45;8.30;;;8.30;98.50;;;;;;4987830;28;20037;-73
2023/05/06 02:51:25;;;;;;;13.68;7.00;;;8.30;98.40;;;;;;4988713;28;20485;-73
2023/05/06 02:53:51;;;;;;;17.65;8.00;;;8.30;98.40;;;;;;4991377;28;20537;-72
2023/05/06 02:56:16;;;;;;;12.93;7.55;;;8.30;98.40;;;;;;4983108;28;20046;-72
2023/05/06 02:58:41;;;;;;;14.98;8.10;;;8.20;98.40;;;;;;4984351;28;20030;-73
2023/05/06 03:01:07;;;;;;;14.20;8.07;;;8.20;98.50;;;;;;4985675;28;20043;-73
2023/05/06 03:03:32;;;;;;;18.67;7.95;;;8.20;98.50;;;;;;4988735;28;20036;-72
2023/05/06 03:05:58;;;;;;;14.32;7.65;;;8.20;98.50;;;;;;4986511;28;20038;-72
2023/05/06 03:08:23;;;;;;;15.63;8.43;;;8.30;98.60;;;;;;4989692;28;20057;-73
2023/05/06 03:10:49;;;;;;;15.57;8.27;;;8.30;98.60;;;;;;4991126;28;20038;-72
2023/05/06 03:13:15;;;;;;;13.18;8.18;;;8.20;98.60;;;;;;4985928;28;20341;-72
2023/05/06 03:15:40;;;;;;;12.85;7.70;;;8.30;98.70;;;;;;4990336;28;20387;-72
2023/05/06 03:18:06;;;;;;;17.02;8.30;;;8.20;98.70;;;;;;4987764;28;20023;-73
2023/05/06 03:20:31;;;;;;;19.17;8.73;;;8.20;98.70;;;;;;4990049;28;20038;-72
2023/05/06 03:22:57;;;;;;;20.27;8.80;;;8.20;98.70;;;;;;4995537;28;20069;-72
2023/05/06 03:25:22;;;;;;;17.30;8.25;;;8.10;98.70;;;;;;4988798;28;20034;-73
2023/05/06 03:27:48;;;;;;;16.73;8.52;;;8.20;98.80;;;;;;4980215;28;20085;-73
2023/05/06 03:30:13;;;;;;;14.07;9.10;;;8.10;98.80;;;;;;4980801;28;20059;-72
2023/05/06 03:32:39;;;;;;;15.80;9.05;;;8.20;98.90;;;;;;4987367;28;20030;-72
2023/05/06 03:35:06;;;;;;;14.18;9.05;;;8.20;98.90;;;;;;4987921;28;20125;-72
2023/05/06 03:37:31;;;;;;;13.38;9.13;;;8.30;99.00;;;;;;4987112;28;20030;-73
2023/05/06 03:39:57;;;;;;;14.68;9.13;;;8.30;99.00;;;;;;4992542;28;20030;-72
2023/05/06 03:42:22;;;;;;;16.85;9.02;;;8.30;99.00;;;;;;4987605;28;20101;-72
2023/05/06 03:44:48;;;;;;;17.42;10.40;;;8.30;99.00;;;;;;4986207;28;20045;-73
2023/05/06 03:47:13;;;;;;;18.55;9.98;;;8.30;98.90;;;;;;4984352;28;20423;-73
2023/05/06 03:49:39;;;;;;;18.52;10.80;;;8.40;99.00;;;;;;4964262;28;20034;-72
2023/05/06 03:52:04;;;;;;;18.52;10.10;;;8.40;99.00;;;;;;4989716;28;20053;-72
2023/05/06 03:54:30;;;;;;;16.20;9.77;;;8.40;99.00;;;;;;4988502;28;20381;-73
2023/05/06 03:56:55;;;;;;;15.77;9.63;;;8.40;99.00;;;;;;4987916;28;20074;-72
2023/05/06 03:59:21;;;;;;;15.48;9.43;;;8.50;99.00;;;;;;4991280;28;20026;-72
2023/05/06 04:01:46;;;;;;;19.33;9.70;;;8.40;98.90;;;;;;4987615;28;20479;-73
2023/05/06 04:04:12;;;;;;;18.05;9.63;;;8.50;99.00;;;;;;4984242;28;20085;-73
2023/05/06 04:06:37;;;;;;;15.32;10.25;;;8.50;99.00;;;;;;4988228;28;20121;-72
2023/05/06 04:09:05;;;;;;;18.95;10.68;;;8.50;99.00;;;;;;4990302;28;20034;-72
2023/05/06 04:11:30;;;;;;;13.57;9.70;;;8.60;99.00;;;;;;4988303;28;20031;-73
2023/05/06 04:13:56;;;;;;;19.83;10.77;;;8.60;99.00;;;;;;4990202;28;20031;-72
2023/05/06 04:16:21;;;;;;;18.48;10.68;;;8.60;99.00;;;;;;4970674;28;20105;-73
2023/05/06 04:18:48;;;;;;;17.48;10.45;;;8.60;99.00;;;;;;4989334;28;20026;-73
2023/05/06 04:21:13;;;;;;;15.93;10.27;;;8.60;99.00;;;;;;4990310;28;20104;-72
2023/05/06 04:23:40;;;;;;;15.68;10.02;;;8.60;98.90;;;;;;4972914;28;20121;-73
2023/05/06 04:26:06;;;;;;;16.17;10.52;;;8.60;98.90;;;;;;4990502;28;20022;-73
2023/05/06 04:28:31;;;;;;;14.20;9.98;;;8.60;98.90;;;;;;4971183;28;20120;-72
2023/05/06 04:30:57;;;;;;;17.40;11.23;;;8.60;98.90;;;;;;4981991;28;20042;-72
2023/05/06 04:33:24;;;;;;;17.55;10.40;;;8.60;98.80;;;;;;4985715;28;20050;-72
2023/05/06 04:35:53;;;;;;;15.13;10.05;;;8.60;98.90;;;;;;4987160;28;20931;-71
2023/05/06 04:38:24;;;;;;;18.05;10.52;;;8.60;98.80;;;;;;4989434;28;20470;-71
2023/05/06 04:40:50;;;;;;;18.52;10.10;;;8.70;98.90;;;;;;4987073;28;20037;-71
2023/05/06 04:43:15;;;;;;;18.63;10.13;;;8.60;98.90;;;;;;4987020;28;20447;-72
2023/05/06 04:45:47;;;;;;;13.93;9.82;;;8.70;98.90;;;;;;4987647;28;20034;-72
2023/05/06 04:48:21;;;;;;;15.70;9.82;;;8.80;99.00;;;;;;4987411;28;20463;-72
2023/05/06 04:50:47;;;;;;;17.23;10.45;;;8.80;99.00;;;;;;5001159;28;20022;-72
2023/05/06 04:53:13;;;;;;;14.02;9.65;;;8.80;98.90;;;;;;4993356;28;20031;-71
2023/05/06 04:55:38;;;;;;;17.58;10.93;;;8.80;98.90;;;;;;5002459;28;20042;-71
2023/05/06 04:58:04;;;;;;;14.43;10.18;;;8.80;98.80;;;;;;4992145;28;20037;-71
2023/05/06 05:00:29;;;;;;;14.70;10.50;;;8.90;98.90;;;;;;4981478;28;20371;-71
2023/05/06 05:02:54;;;;;;;16.33;10.55;;;9.00;98.90;;;;;;4990399;28;20088;-72
2023/05/06 05:05:20;;;;;;;17.13;10.40;;;9.00;98.90;;;;;;4989206;28;20478;-72
2023/05/06 05:07:45;;;;;;;16.20;10.40;;;9.00;98.70;;;;;;4992263;28;20115;-72
2023/05/06 05:10:11;;;;;;;20.30;10.85;;;9.00;98.70;;;;;;4993536;28;20022;-72
2023/05/06 05:12:36;;;;;;;18.40;10.68;;;9.00;98.80;;;;;;4991378;28;20033;-72
2023/05/06 05:15:02;;;;;;;18.23;10.88;;;9.10;98.70;;;;;;4989586;28;20039;-72
2023/05/06 05:17:28;;;;;;;15.57;10.13;;;9.10;98.70;;;;;;4988967;28;20113;-71
2023/05/06 05:19:54;;;;;;;15.70;10.63;;;9.00;98.60;;;;;;4990801;28;20455;-72
2023/05/06 05:22:19;;;;;;;16.83;9.98;;;9.00;98.60;;;;;;4990796;28;20041;-72
2023/05/06 05:24:45;;;;;;;16.38;10.38;;;9.10;98.70;;;;;;4989456;28;20093;-74
2023/05/06 05:27:11;;;;;;;17.38;10.90;;;9.10;98.70;;;;;;4985328;28;20015;-72
2023/05/06 05:29:36;;;;;;;17.13;11.32;;;9.10;98.60;;;;;;4990327;28;20121;-72
2023/05/06 05:32:02;;;;;;;21.20;10.95;;;9.20;98.60;;;;;;4981581;28;20038;-76
2023/05/06 05:34:29;;;;;;;14.13;10.70;;;9.20;98.60;;;;;;4982938;28;20129;-75
2023/05/06 05:36:56;;;;;;;14.68;10.40;;;9.30;98.50;;;;;;4986151;28;20038;-76
2023/05/06 05:39:21;;;;;;;17.33;10.57;;;9.30;98.40;;;;;;4993285;28;20053;-77
2023/05/06 05:41:47;;;;;;;16.15;10.35;;;9.30;98.40;;;;;;4986736;28;20101;-77
2023/05/06 05:44:13;;;;;;;19.60;10.60;;;9.40;98.40;;;;;;5002358;28;20034;-76
2023/05/06 05:46:39;;;;;;;16.88;11.00;;;9.50;98.50;;;;;;4970707;28;20111;-75
2023/05/06 05:49:05;;;;;;;17.15;10.57;;;9.50;98.40;;;;;;4989828;28;20490;-76
2023/05/06 05:51:30;;;;;;;16.00;10.43;;;9.60;98.50;;;;;;4988963;28;20015;-76
2023/05/06 05:53:56;;;;;;;15.18;10.63;;;9.60;98.40;;;;;;4990126;28;20034;-77
2023/05/06 05:56:21;;;;;;;17.80;10.80;;;9.60;98.20;;;;;;4989547;28;20081;-77
2023/05/06 05:58:47;;;;;;;14.95;9.85;;;9.60;98.20;;;;;;4989895;28;20034;-76
2023/05/06 06:01:13;;;;;;;19.77;10.18;;;9.70;98.20;;;;;;4989382;28;20022;-77
2023/05/06 06:03:39;;;;;;;23.65;11.02;;;9.90;98.20;;;;;;4987708;28;20463;-76
2023/05/06 06:06:04;;;;;;;13.75;9.65;;;9.80;97.80;;;;;;4996937;28;20045;-78
2023/05/06 06:08:31;;;;;;;18.92;9.77;;;9.90;97.80;;;;;;4989595;28;20149;-73
2023/05/06 06:10:56;;;;;;;15.80;9.95;;;10.00;98.10;;;;;;4984511;28;20073;-76
2023/05/06 06:13:22;;;;;;;17.05;9.55;;;10.10;97.70;;;;;;4987258;28;20060;-77
2023/05/06 06:15:47;;;;;;;17.35;9.38;;;10.00;97.40;;;;;;4991251;28;20473;-77
2023/05/06 06:18:13;;;;;;;16.52;10.07;;;10.10;97.60;;;;;;4982161;28;20027;-77
2023/05/06 06:20:38;;;;;;;17.20;9.52;;;10.00;97.20;;;;;;4983980;28;20046;-77
2023/05/06 06:23:04;;;;;;;14.88;9.40;;;10.10;97.40;;;;;;4984675;28;20026;-77
2023/05/06 06:25:30;;;;;;;15.85;9.60;;;10.10;97.30;;;;;;4995541;28;20538;-77
2023/05/06 06:27:55;;;;;;;14.27;8.98;;;10.10;97.30;;;;;;4991168;28;20375;-72
2023/05/06 06:30:21;;;;;;;14.15;8.38;;;10.10;97.20;;;;;;4991307;28;20053;-76
2023/05/06 06:32:48;;;;;;;17.90;8.95;;;10.10;96.90;;;;;;4991226;28;20045;-75
2023/05/06 06:35:14;;;;;;;13.98;9.57;;;10.10;97.20;;;;;;4988400;28;20034;-75
2023/05/06 06:37:40;;;;;;;17.30;9.40;;;10.10;97.00;;;;;;4986931;28;20475;-75
2023/05/06 06:40:06;;;;;;;14.52;9.30;;;10.10;96.60;;;;;;4989331;28;20097;-76
2023/05/06 06:42:31;;;;;;;12.75;9.23;;;10.10;96.90;;;;;;4988082;28;20034;-74
2023/05/06 06:44:57;;;;;;;18.38;10.15;;;10.10;96.80;;;;;;4990188;28;20026;-72
2023/05/06 06:47:22;;;;;;;15.98;10.10;;;10.20;97.00;;;;;;4989905;28;20149;-75
2023/05/06 06:49:48;;;;;;;13.90;9.80;;;10.10;96.90;;;;;;4988059;28;20109;-75
2023/05/06 06:52:13;;;;;;;13.85;9.80;;;10.30;97.00;;;;;;4990217;28;20065;-74
2023/05/06 06:54:39;;;;;;;16.15;9.88;;;10.30;96.80;;;;;;4991460;28;20031;-74
2023/05/06 06:57:05;;;;;;;15.13;9.65;;;10.30;96.80;;;;;;4989293;28;20485;-75
2023/05/06 06:59:31;;;;;;;14.52;9.80;;;10.40;97.00;;;;;;4991163;28;20029;-74
2023/05/06 07:01:56;;;;;;;16.75;9.55;;;10.50;96.80;;;;;;4986272;28;20038;-74
2023/05/06 07:04:23;;;;;;;20.00;10.15;;;10.50;96.60;;;;;;4975659;28;20615;-74
2023/05/06 07:06:49;;;;;;;15.27;10.63;;;10.50;96.60;;;;;;4988793;28;20033;-74
2023/05/06 07:09:14;;;;;;;17.63;10.52;;;10.70;96.60;;;;;;4972696;28;20030;-74
2023/05/06 07:11:40;;;;;;;16.92;9.48;;;10.60;96.10;;;;;;4985778;28;20066;-74
2023/05/06 07:14:06;;;;;;;15.48;9.23;;;10.60;96.20;;;;;;4984425;28;20032;-74
2023/05/06 07:16:31;;;;;;;18.08;9.77;;;10.60;96.30;;;;;;4982101;28;20034;-74
2023/05/06 07:18:57;;;;;;;14.20;9.95;;;10.60;96.30;;;;;;4981319;28;20026;-75
2023/05/06 07:21:22;;;;;;;15.63;9.50;;;10.60;96.20;;;;;;4979714;28;20487;-74
2023/05/06 07:23:48;;;;;;;15.85;9.43;;;10.60;96.30;;;;;;4981788;28;20050;-75
2023/05/06 07:26:13;;;;;;;17.42;10.93;;;10.60;96.10;;;;;;4990576;28;20113;-74
2023/05/06 07:28:39;;;;;;;16.30;10.45;;;10.70;96.20;;;;;;4982342;28;20026;-74
2023/05/06 07:31:04;;;;;;;17.83;9.88;;;10.80;96.10;;;;;;4982807;28;20420;-74
2023/05/06 07:33:30;;;;;;;15.13;9.68;;;10.90;95.90;;;;;;4988459;28;20030;-74
2023/05/06 07:35:56;;;;;;;15.68;10.25;;;10.90;95.80;;;;;;4982359;28;20169;-74
2023/05/06 07:38:22;;;;;;;15.73;9.75;;;10.90;95.80;;;;;;4997225;28;20487;-74
2023/05/06 07:40:48;;;;;;;16.77;9.65;;;10.90;95.60;;;;;;4983866;28;20045;-74
2023/05/06 07:43:13;;;;;;;14.40;9.98;;;11.00;95.70;;;;;;4984072;28;20034;-74
2023/05/06 07:45:39;;;;;;;15.93;10.52;;;11.00;95.50;;;;;;4982649;28;20513;-75
2023/05/06 07:48:05;;;;;;;14.35;10.02;;;11.00;95.70;;;;;;4977751;28;20037;-74
2023/05/06 07:50:30;;;;;;;14.85;10.00;;;11.10;95.90;;;;;;4981327;28;20030;-74
2023/05/06 07:52:56;;;;;;;15.60;9.85;;;11.10;95.50;;;;;;4985477;28;20081;-74
2023/05/06 07:55:22;;;;;;;16.70;10.18;;;11.00;95.10;;;;;;4981978;28;20431;-74
2023/05/06 07:57:48;;;;;;;14.30;10.27;;;11.00;95.60;;;;;;4984343;28;20030;-74
2023/05/06 08:00:14;;;;;;;16.70;9.77;;;10.90;95.00;;;;;;4987206;28;20493;-75
2023/05/06 08:02:43;;;;;;;16.27;10.23;;;11.00;95.50;;;;;;4988366;28;20038;-75
2023/05/06 08:05:12;;;;;;;16.13;9.45;;;11.00;95.50;;;;;;4982519;28;20030;-75
2023/05/06 08:07:40;;;;;;;15.93;9.70;;;11.10;95.40;;;;;;4978452;28;20042;-76
2023/05/06 08:10:06;;;;;;;16.30;9.75;;;11.30;95.30;;;;;;4988042;28;20018;-76
2023/05/06 08:12:31;;;;;;;15.50;10.48;;;11.10;94.70;;;;;;4986649;28;20027;-77
2023/05/06 08:14:57;;;;;;;18.40;10.32;;;11.20;95.00;;;;;;4989535;28;20363;-76
2023/05/06 08:17:22;;;;;;;19.40;10.13;;;11.20;95.10;;;;;;4989077;28;20022;-75
2023/05/06 08:19:48;;;;;;;17.35;10.85;;;11.20;94.60;;;;;;4988121;28;20040;-75
2023/05/06 08:22:15;;;;;;;17.95;10.00;;;11.30;94.50;;;;;;4992263;28;20093;-74
2023/05/06 08:24:40;;;;;;;15.85;9.68;;;11.40;95.00;;;;;;4991409;28;20022;-75
2023/05/06 08:27:06;;;;;;;15.43;10.10;;;11.50;94.50;;;;;;4989848;28;20371;-75
2023/05/06 08:29:31;;;;;;;18.95;9.98;;;11.50;94.30;;;;;;4989651;28;20043;-75
2023/05/06 08:31:57;;;;;;;14.60;9.52;;;11.40;94.20;;;;;;4973512;28;20448;-75
2023/05/06 08:34:22;;;;;;;17.83;10.57;;;11.60;94.50;;;;;;4990182;28;20105;-75
2023/05/06 08:36:48;;;;;;;15.70;9.43;;;11.50;93.50;;;;;;4992007;28;20418;-75
2023/05/06 08:39:13;;;;;;;19.20;10.48;;;11.60;94.10;;;;;;4988428;28;20367;-75
2023/05/06 08:41:40;;;;;;;18.27;10.52;;;11.60;93.70;;;;;;4991299;28;20085;-75
2023/05/06 08:44:06;;;;;;;19.10;9.80;;;11.70;93.70;;;;;;4993767;28;20450;-75
2023/05/06 08:46:32;;;;;;;16.83;9.88;;;11.60;93.50;;;;;;4993788;28;20379;-75
2023/05/06 08:48:59;;;;;;;17.25;9.95;;;11.80;93.70;;;;;;4992406;28;20512;-75
2023/05/06 08:51:29;;;;;;;15.02;9.90;;;11.60;93.20;;;;;;4991752;28;20105;-75
2023/05/06 08:53:58;;;;;;;17.00;10.48;;;11.60;93.30;;;;;;4992276;28;20105;-75
2023/05/06 08:56:28;;;;;;;14.65;10.13;;;11.50;93.50;;;;;;4986119;28;20030;-75
2023/05/06 08:58:54;;;;;;;15.80;10.20;;;11.60;93.50;;;;;;4992145;28;20058;-75
2023/05/06 09:01:20;;;;;;;14.95;10.10;;;11.80;93.80;;;;;;4993001;28;20022;-75
2023/05/06 09:03:47;;;;;;;16.20;9.88;;;11.80;93.90;;;;;;4988024;28;20371;-75
2023/05/06 09:06:13;;;;;;;20.30;10.18;;;11.80;93.10;;;;;;4989606;28;20897;-75
2023/05/06 09:08:38;;;;;;;15.80;10.43;;;11.80;93.40;;;;;;4986773;28;20038;-75
2023/05/06 09:11:21;;;;;;;17.63;10.82;;;11.90;92.90;;;;;;4981299;28;20490;-75
2023/05/06 09:13:48;;;;;;;21.23;10.57;;;11.80;92.20;;;;;;4982465;28;20371;-74
2023/05/06 09:16:27;;;;;;;13.80;9.27;;;12.00;93.10;;;;;;4978092;28;20109;-74
2023/05/06 09:18:53;;;;;;;15.25;9.73;;;11.90;92.20;;;;;;4976220;28;20030;-76
2023/05/06 09:21:18;;;;;;;18.15;10.30;;;12.10;93.10;;;;;;4985809;28;20097;-74
2023/05/06 09:23:44;;;;;;;17.50;10.10;;;12.50;93.00;;;;;;4986380;28;20027;-74
2023/05/06 09:26:10;;;;;;;19.92;9.77;;;12.60;92.60;;;;;;4991096;28;20062;-75
2023/05/06 09:28:35;;;;;;;13.35;9.50;;;12.80;91.80;;;;;;4987671;28;20123;-75
2023/05/06 09:31:02;;;;;;;22.40;10.75;;;12.70;91.80;;;;;;4982195;28;20034;-75
2023/05/06 09:33:27;;;;;;;13.85;8.38;;;12.70;91.10;;;;;;4985982;28;20030;-75
2023/05/06 09:35:53;;;;;;;14.23;9.40;;;12.90;91.50;;;;;;4986600;28;20042;-75
2023/05/06 09:38:18;;;;;;;18.55;9.98;;;13.00;90.50;;;;;;4985447;28;20022;-75
2023/05/06 09:40:44;;;;;;;16.58;9.50;;;13.00;89.90;;;;;;4981516;28;20352;-76
2023/05/06 09:43:10;;;;;;;14.32;9.10;;;13.30;90.20;;;;;;4980694;28;20038;-77
2023/05/06 09:45:35;;;;;;;19.08;9.38;;;13.10;89.10;;;;;;4983795;28;20375;-76
2023/05/06 09:48:01;;;;;;;17.73;9.70;;;13.10;89.00;;;;;;4990813;28;20033;-75
2023/05/06 09:50:27;;;;;;;17.25;8.75;;;13.10;89.10;;;;;;4987117;28;20018;-79
2023/05/06 09:52:54;;;;;;;14.95;9.00;;;13.40;88.40;;;;;;4986967;28;20120;-78
2023/05/06 09:55:21;;;;;;;13.35;8.20;;;13.50;88.00;;;;;;4991333;28;20041;-78
2023/05/06 09:57:48;;;;;;;12.13;8.40;;;13.20;86.70;;;;;;4991214;28;20026;-77
2023/05/06 10:00:15;;;;;;;13.35;8.35;;;13.60;87.50;;;;;;4986627;28;20062;-77
2023/05/06 10:02:42;;;;;;;11.40;8.20;;;13.70;87.60;;;;;;4985179;28;20023;-78
2023/05/06 10:05:08;;;;;;;12.60;7.43;;;13.90;86.50;;;;;;4986278;28;20026;-78
2023/05/06 10:07:35;;;;;;;13.95;8.57;;;13.50;86.60;;;;;;4989448;28;20045;-78
2023/05/06 10:10:06;;;;;;;13.57;7.43;;;13.60;86.10;;;;;;4989266;28;20028;-78
2023/05/06 10:12:34;;;;;;;16.20;9.00;;;13.90;86.70;;;;;;4988396;28;20638;-78
2023/05/06 10:14:59;;;;;;;13.90;8.20;;;14.20;86.50;;;;;;4984731;28;20077;-78
2023/05/06 10:17:26;;;;;;;12.73;8.07;;;14.70;87.00;;;;;;4987542;28;20014;-78
2023/05/06 10:19:56;;;;;;;11.80;8.27;;;14.90;84.80;;;;;;4985268;28;20092;-80
2023/05/06 10:22:39;;;;;;;12.37;7.97;;;15.10;83.90;;;;;;4987205;28;20455;-78
2023/05/06 10:25:15;;;;;;;10.35;7.00;;;15.00;82.90;;;;;;4982563;28;20026;-78
2023/05/06 10:27:43;;;;;;;10.82;7.03;;;15.10;82.00;;;;;;4986800;28;20402;-79
2023/05/06 10:30:10;;;;;;;15.50;7.72;;;14.70;81.30;;;;;;4979802;28;20467;-79
2023/05/06 10:32:40;;;;;;;12.68;7.80;;;15.10;84.60;;;;;;4985678;28;20509;-80
2023/05/06 10:35:18;;;;;;;15.02;7.78;;;15.00;82.90;;;;;;4980913;28;20659;-80
2023/05/06 10:37:46;;;;;;;13.25;7.13;;;15.10;84.00;;;;;;4986237;28;20026;-78
2023/05/06 10:40:12;;;;;;;12.52;7.38;;;15.00;83.00;;;;;;4989599;28;20740;-79
2023/05/06 10:42:38;;;;;;;11.48;6.25;;;15.20;82.00;;;;;;4988232;28;20038;-78
2023/05/06 10:45:04;;;;;;;10.45;6.50;;;15.50;81.30;;;;;;4984785;28;20033;-78
2023/05/06 10:47:55;;;;;;;10.32;6.60;;;16.00;79.80;;;;;;4974913;28;20161;-78
2023/05/06 10:50:24;;;;;;;10.27;6.00;;;16.10;78.80;;;;;;4987805;28;20030;-78
2023/05/06 10:52:54;;;;;;;8.13;5.43;;;16.50;79.70;;;;;;4989992;28;20037;-79
2023/05/06 10:55:27;;;;;;;8.93;5.40;;;16.70;77.00;;;;;;4988687;28;20052;-78
2023/05/06 10:58:00;;;;;;;8.02;5.70;;;16.80;73.30;;;;;;4985810;28;20174;-80
2023/05/06 11:00:30;;;;;;;7.45;4.53;;;17.00;73.50;;;;;;4984420;28;20030;-77
2023/05/06 11:02:56;;;;;;;9.07;5.28;;;16.80;71.90;;;;;;4983906;28;20037;-78
2023/05/06 11:05:22;;;;;;;8.82;5.05;;;16.20;72.70;;;;;;4984096;28;20118;-78
2023/05/06 11:07:52;;;;;;;7.22;4.65;;;16.10;72.80;;;;;;4987970;28;20030;-78
2023/05/06 11:10:33;;;;;;;6.80;4.95;;;16.50;76.50;;;;;;4987954;28;20019;-77
2023/05/06 11:13:27;;;;;;;10.10;6.57;;;16.50;75.10;;;;;;4973398;28;20065;-77
2023/05/06 11:15:54;;;;;;;13.73;7.50;;;16.40;77.80;;;;;;4986007;28;20030;-77
2023/05/06 11:18:29;;;;;;;10.43;7.05;;;16.10;78.50;;;;;;4987600;28;20030;-77
2023/05/06 11:21:01;;;;;;;13.48;7.00;;;16.10;79.20;;;;;;4983275;28;20084;-77
2023/05/06 11:23:45;;;;;;;14.70;7.30;;;16.20;78.30;;;;;;4988917;28;20064;-79
2023/05/06 11:26:12;;;;;;;11.43;7.72;;;16.20;77.90;;;;;;4976015;28;20687;-79
2023/05/06 11:28:49;;;;;;;12.43;7.32;;;16.90;79.40;;;;;;4979713;28;20026;-79
2023/05/06 11:31:15;;;;;;;14.15;7.50;;;17.10;77.90;;;;;;4964128;28;20107;-76
2023/05/06 11:33:48;;;;;;;10.02;7.55;;;16.90;78.00;;;;;;4967616;28;20066;-77
2023/05/06 11:36:16;;;;;;;15.52;8.38;;;17.10;75.90;;;;;;4960252;28;20105;-76
2023/05/06 11:38:43;;;;;;;13.93;7.45;;;17.10;74.90;;;;;;4968250;28;20451;-76
2023/05/06 11:41:08;;;;;;;10.80;7.15;;;17.30;75.80;;;;;;4970275;28;20357;-76
2023/05/06 11:43:34;;;;;;;14.07;7.10;;;16.90;77.30;;;;;;4970920;28;20069;-76
2023/05/06 11:45:59;;;;;;;17.15;7.68;;;17.10;76.40;;;;;;4970180;28;20035;-76
2023/05/06 11:48:25;;;;;;;26.40;8.27;;;17.00;75.50;;;;;;4964883;28;20027;-76
2023/05/06 11:50:50;;;;;;;39.35;10.70;;;17.10;75.80;;;;;;4963950;28;20424;-76
2023/05/06 11:53:18;;;;;;;15.65;6.57;;;17.00;74.00;;;;;;4969389;28;20030;-76
2023/05/06 11:55:45;;;;;;;11.23;6.85;;;16.80;76.60;;;;;;4964428;28;20038;-77
2023/05/06 11:58:17;;;;;;;10.57;6.55;;;16.80;75.00;;;;;;4972204;28;20025;-77
2023/05/06 12:00:52;;;;;;;14.00;7.65;;;16.60;75.20;;;;;;4977691;28;20042;-76
2023/05/06 12:03:19;;;;;;;12.88;6.95;;;16.40;76.00;;;;;;4979513;28;20117;-77
2023/05/06 12:05:49;;;;;;;16.02;7.03;;;16.60;76.30;;;;;;4968535;28;20031;-75
2023/05/06 12:08:22;;;;;;;17.15;7.25;;;17.00;74.90;;;;;;4977611;28;20022;-76
2023/05/06 12:10:50;;;;;;;27.45;9.30;;;17.10;73.90;;;;;;4970280;28;20384;-76
2023/05/06 12:13:17;;;;;;;10.05;6.60;;;17.10;75.50;;;;;;4975642;28;20043;-76
2023/05/06 12:15:43;;;;;;;13.18;7.72;;;17.30;74.90;;;;;;4977410;28;20383;-76
2023/05/06 12:18:09;;;;;;;12.07;7.25;;;17.00;75.50;;;;;;4973307;28;20051;-77
2023/05/06 12:20:35;;;;;;;18.30;7.78;;;17.00;75.10;;;;;;4972421;28;20380;-76
2023/05/06 12:23:11;;;;;;;12.85;7.25;;;16.90;75.30;;;;;;4975816;28;20038;-77
2023/05/06 12:25:38;;;;;;;10.10;6.82;;;16.80;74.90;;;;;;4981633;28;20066;-77
2023/05/06 12:28:17;;;;;;;13.40;7.35;;;16.40;76.10;;;;;;4967306;28;20134;-76
2023/05/06 12:30:43;;;;;;;10.63;6.65;;;16.30;76.10;;;;;;4988987;28;20046;-76
2023/05/06 12:33:10;;;;;;;9.88;6.72;;;16.20;75.50;;;;;;4993395;28;20077;-75
2023/05/06 12:35:36;;;;;;;12.80;6.97;;;16.00;76.60;;;;;;4995668;28;20034;-76
2023/05/06 12:38:12;;;;;;;11.80;7.50;;;16.30;76.80;;;;;;4987337;28;20031;-77
2023/05/06 12:40:39;;;;;;;13.55;7.95;;;16.10;76.80;;;;;;4990302;28;20065;-77